sensor_id;sensor_type;location;lat;lon;timestamp;temperature;humidity
55648;DHT22;45266;48.756;9.246;2023-05-07T00:00:40;12.50;99.90
55648;DHT22;45266;48.756;9.246;2023-05-07T00:01:43;12.50;99.90
55648;DHT22;45266;48.756;9.246;2023-05-07T00:02:46;12.60;99.90
55648;DHT22;45266;48.756;9.246;2023-05-07T00:03:48;12.50;99.90
55648;DHT22;45266;48.756;9.246;2023-05-07T00:04:50;12.50;99.90
55648;DHT22;45266;48.756;9.246;2023-05-07T00:05:53;12.50;99.90
55648;DHT22;45266;48.756;9.246;2023-05-07T00:06:55;12.50;99.90
55648;DHT22;45266;48.756;9.246;2023-05-07T00:07:57;12.50;99.90
55648;DHT22;45266;48.756;9.246;2023-05-07T00:09:00;12.50;99.90
55648;DHT22;45266;48.756;9.246;2023-05-07T00:10:03;12.50;99.90
55648;DHT22;45266;48.756;9.246;2023-05-07T00:11:05;12.50;99.90
55648;DHT22;45266;48.756;9.246;2023-05-07T00:12:07;12.50;99.90
55648;DHT22;45266;48.756;9.246;2023-05-07T00:13:09;12.50;99.90
55648;DHT22;45266;48.756;9.246;2023-05-07T00:14:11;12.50;99.90
55648;DHT22;45266;48.756;9.246;2023-05-07T00:15:12;12.40;99.90
55648;DHT22;45266;48.756;9.246;2023-05-07T00:16:15;12.40;99.90
55648;DHT22;45266;48.756;9.246;2023-05-07T00:17:17;12.40;99.90
55648;DHT22;45266;48.756;9.246;2023-05-07T00:18:18;12.40;99.90
55648;DHT22;45266;48.756;9.246;2023-05-07T00:19:22;12.40;99.90
55648;DHT22;45266;48.756;9.246;2023-05-07T00:20:24;12.40;99.90
55648;DHT22;45266;48.756;9.246;2023-05-07T00:21:26;12.40;99.90
55648;DHT22;45266;48.756;9.246;2023-05-07T00:22:28;12.40;99.90
55648;DHT22;45266;48.756;9.246;2023-05-07T00:23:31;12.40;99.90
55648;DHT22;45266;48.756;9.246;2023-05-07T00:24:33;12.40;99.90
55648;DHT22;45266;48.756;9.246;2023-05-07T00:25:35;12.40;99.90
55648;DHT22;45266;48.756;9.246;2023-05-07T00:26:36;12.40;99.90
55648;DHT22;45266;48.756;9.246;2023-05-07T00:27:38;12.40;99.90
55648;DHT22;45266;48.756;9.246;2023-05-07T00:28:41;12.40;99.90
55648;DHT22;45266;48.756;9.246;2023-05-07T00:29:42;12.40;99.90
55648;DHT22;45266;48.756;9.246;2023-05-07T00:30:45;12.50;99.90
55648;DHT22;45266;48.756;9.246;2023-05-07T00:31:48;12.40;99.90
55648;DHT22;45266;48.756;9.246;2023-05-07T00:32:50;12.40;99.90
55648;DHT22;45266;48.756;9.246;2023-05-07T00:33:52;12.40;99.90
55648;DHT22;45266;48.756;9.246;2023-05-07T00:34:54;12.40;99.90
55648;DHT22;45266;48.756;9.246;2023-05-07T00:35:57;12.40;99.90
55648;DHT22;45266;48.756;9.246;2023-05-07T00:36:58;12.40;99.90
55648;DHT22;45266;48.756;9.246;2023-05-07T00:38:00;12.40;99.90
55648;DHT22;45266;48.756;9.246;2023-05-07T00:39:02;12.40;99.90
55648;DHT22;45266;48.756;9.246;2023-05-07T00:40:05;12.40;99.90
55648;DHT22;45266;48.756;9.246;2023-05-07T00:41:09;12.40;99.90
55648;DHT22;45266;48.756;9.246;2023-05-07T00:42:11;12.30;99.90
55648;DHT22;45266;48.756;9.246;2023-05-07T00:43:13;12.30;99.90
55648;DHT22;45266;48.756;9.246;2023-05-07T00:44:14;12.30;99.90
55648;DHT22;45266;48.756;9.246;2023-05-07T00:45:16;12.30;99.90
55648;DHT22;45266;48.756;9.246;2023-05-07T00:46:20;12.30;99.90
55648;DHT22;45266;48.756;9.246;2023-05-07T00:47:22;12.30;99.90
55648;DHT22;45266;48.756;9.246;2023-05-07T00:48:24;12.30;99.90
55648;DHT22;45266;48.756;9.246;2023-05-07T00:49:38;12.30;99.90
55648;DHT22;45266;48.756;9.246;2023-05-07T00:50:40;12.20;99.90
55648;DHT22;45266;48.756;9.246;2023-05-07T00:51:42;12.20;99.90
55648;DHT22;45266;48.756;9.246;2023-05-07T00:52:44;12.30;99.90
55648;DHT22;45266;48.756;9.246;2023-05-07T00:53:46;12.20;99.90
55648;DHT22;45266;48.756;9.246;2023-05-07T00:54:48;12.20;99.90
55648;DHT22;45266;48.756;9.246;2023-05-07T00:55:51;12.20;99.90
55648;DHT22;45266;48.756;9.246;2023-05-07T00:56:53;12.20;99.90
55648;DHT22;45266;48.756;9.246;2023-05-07T00:57:55;12.20;99.90
55648;DHT22;45266;48.756;9.246;2023-05-07T00:58:57;12.20;99.90
55648;DHT22;45266;48.756;9.246;2023-05-07T00:59:59;12.20;99.90
55648;DHT22;45266;48.756;9.246;2023-05-07T01:01:02;12.20;99.90
55648;DHT22;45266;48.756;9.246;2023-05-07T01:02:03;12.20;99.90
55648;DHT22;45266;48.756;9.246;2023-05-07T01:03:05;12.20;99.90
55648;DHT22;45266;48.756;9.246;2023-05-07T01:04:08;12.20;99.90
55648;DHT22;45266;48.756;9.246;2023-05-07T01:05:13;12.20;99.90
55648;DHT22;45266;48.756;9.246;2023-05-07T01:06:16;12.20;99.90
55648;DHT22;45266;48.756;9.246;2023-05-07T01:07:19;12.20;99.90
55648;DHT22;45266;48.756;9.246;2023-05-07T01:08:22;12.20;99.90
55648;DHT22;45266;48.756;9.246;2023-05-07T01:09:24;12.10;99.90
55648;DHT22;45266;48.756;9.246;2023-05-07T01:10:26;12.20;99.90
55648;DHT22;45266;48.756;9.246;2023-05-07T01:11:29;12.10;99.90
55648;DHT22;45266;48.756;9.246;2023-05-07T01:12:31;12.10;99.90
55648;DHT22;45266;48.756;9.246;2023-05-07T01:13:34;12.10;99.90
55648;DHT22;45266;48.756;9.246;2023-05-07T01:14:36;12.10;99.90
55648;DHT22;45266;48.756;9.246;2023-05-07T01:15:38;12.10;99.90
55648;DHT22;45266;48.756;9.246;2023-05-07T01:16:42;12.10;99.90
55648;DHT22;45266;48.756;9.246;2023-05-07T01:17:44;12.10;99.90
55648;DHT22;45266;48.756;9.246;2023-05-07T01:18:46;12.10;99.90
55648;DHT22;45266;48.756;9.246;2023-05-07T01:19:49;12.00;99.90
55648;DHT22;45266;48.756;9.246;2023-05-07T01:20:52;12.10;99.90
55648;DHT22;45266;48.756;9.246;2023-05-07T01:22:01;12.00;99.90
55648;DHT22;45266;48.756;9.246;2023-05-07T01:23:05;12.00;99.90
55648;DHT22;45266;48.756;9.246;2023-05-07T01:24:08;12.00;99.90
55648;DHT22;45266;48.756;9.246;2023-05-07T01:25:10;12.00;99.90
55648;DHT22;45266;48.756;9.246;2023-05-07T01:26:12;12.00;99.90
55648;DHT22;45266;48.756;9.246;2023-05-07T01:27:14;12.00;99.90
55648;DHT22;45266;48.756;9.246;2023-05-07T01:28:16;12.00;99.90
55648;DHT22;45266;48.756;9.246;2023-05-07T01:29:18;12.00;99.90
55648;DHT22;45266;48.756;9.246;2023-05-07T01:30:21;12.00;99.90
55648;DHT22;45266;48.756;9.246;2023-05-07T01:31:24;12.00;99.90
55648;DHT22;45266;48.756;9.246;2023-05-07T01:32:38;11.90;99.90
55648;DHT22;45266;48.756;9.246;2023-05-07T01:33:43;11.90;99.90
55648;DHT22;45266;48.756;9.246;2023-05-07T01:34:48;11.90;99.90
55648;DHT22;45266;48.756;9.246;2023-05-07T01:35:53;11.90;99.90
55648;DHT22;45266;48.756;9.246;2023-05-07T01:36:56;11.90;99.90
55648;DHT22;45266;48.756;9.246;2023-05-07T01:38:00;11.90;99.90
55648;DHT22;45266;48.756;9.246;2023-05-07T01:39:02;12.00;99.90
55648;DHT22;45266;48.756;9.246;2023-05-07T01:40:04;12.00;99.90
55648;DHT22;45266;48.756;9.246;2023-05-07T01:41:07;11.90;99.90
55648;DHT22;45266;48.756;9.246;2023-05-07T01:42:09;11.90;99.90
55648;DHT22;45266;48.756;9.246;2023-05-07T01:43:10;11.90;99.90
55648;DHT22;45266;48.756;9.246;2023-05-07T01:44:13;11.90;99.90
55648;DHT22;45266;48.756;9.246;2023-05-07T01:45:16;11.90;99.90
55648;DHT22;45266;48.756;9.246;2023-05-07T01:46:18;11.90;99.90
55648;DHT22;45266;48.756;9.246;2023-05-07T01:47:21;11.90;99.90
55648;DHT22;45266;48.756;9.246;2023-05-07T01:48:24;11.90;99.90
55648;DHT22;45266;48.756;9.246;2023-05-07T01:49:26;11.90;99.90
55648;DHT22;45266;48.756;9.246;2023-05-07T01:50:29;11.90;99.90
55648;DHT22;45266;48.756;9.246;2023-05-07T01:51:32;11.80;99.90
55648;DHT22;45266;48.756;9.246;2023-05-07T01:52:36;11.90;99.90
55648;DHT22;45266;48.756;9.246;2023-05-07T01:53:38;11.90;99.90
55648;DHT22;45266;48.756;9.246;2023-05-07T01:54:40;11.80;99.90
55648;DHT22;45266;48.756;9.246;2023-05-07T01:55:42;11.80;99.90
55648;DHT22;45266;48.756;9.246;2023-05-07T01:56:44;11.80;99.90
55648;DHT22;45266;48.756;9.246;2023-05-07T01:57:46;11.80;99.90
55648;DHT22;45266;48.756;9.246;2023-05-07T01:58:48;11.80;99.90
55648;DHT22;45266;48.756;9.246;2023-05-07T01:59:50;11.80;99.90
55648;DHT22;45266;48.756;9.246;2023-05-07T02:00:52;11.80;99.90
55648;DHT22;45266;48.756;9.246;2023-05-07T02:01:53;11.80;99.90
55648;DHT22;45266;48.756;9.246;2023-05-07T02:02:55;11.80;99.90
55648;DHT22;45266;48.756;9.246;2023-05-07T02:03:58;11.80;99.90
55648;DHT22;45266;48.756;9.246;2023-05-07T02:05:00;11.70;99.90
55648;DHT22;45266;48.756;9.246;2023-05-07T02:06:02;11.70;99.90
55648;DHT22;45266;48.756;9.246;2023-05-07T02:07:04;11.70;99.90
55648;DHT22;45266;48.756;9.246;2023-05-07T02:08:06;11.70;99.90
55648;DHT22;45266;48.756;9.246;2023-05-07T02:09:08;11.70;99.90
55648;DHT22;45266;48.756;9.246;2023-05-07T02:10:10;11.70;99.90
55648;DHT22;45266;48.756;9.246;2023-05-07T02:11:12;11.70;99.90
55648;DHT22;45266;48.756;9.246;2023-05-07T02:12:14;11.70;99.90
55648;DHT22;45266;48.756;9.246;2023-05-07T02:13:16;11.70;99.90
55648;DHT22;45266;48.756;9.246;2023-05-07T02:14:17;11.70;99.90
55648;DHT22;45266;48.756;9.246;2023-05-07T02:15:21;11.70;99.90
55648;DHT22;45266;48.756;9.246;2023-05-07T02:16:23;11.70;99.90
55648;DHT22;45266;48.756;9.246;2023-05-07T02:17:25;11.70;99.90
55648;DHT22;45266;48.756;9.246;2023-05-07T02:18:27;11.70;99.90
55648;DHT22;45266;48.756;9.246;2023-05-07T02:19:29;11.60;99.90
55648;DHT22;45266;48.756;9.246;2023-05-07T02:20:31;11.60;99.90
55648;DHT22;45266;48.756;9.246;2023-05-07T02:21:32;11.60;99.90
55648;DHT22;45266;48.756;9.246;2023-05-07T02:22:34;11.60;99.90
55648;DHT22;45266;48.756;9.246;2023-05-07T02:23:36;11.60;99.90
55648;DHT22;45266;48.756;9.246;2023-05-07T02:24:37;11.60;99.90
55648;DHT22;45266;48.756;9.246;2023-05-07T02:25:39;11.60;99.90
55648;DHT22;45266;48.756;9.246;2023-05-07T02:26:41;11.60;99.90
55648;DHT22;45266;48.756;9.246;2023-05-07T02:27:43;11.60;99.90
55648;DHT22;45266;48.756;9.246;2023-05-07T02:28:45;11.60;99.90
55648;DHT22;45266;48.756;9.246;2023-05-07T02:29:47;11.60;99.90
55648;DHT22;45266;48.756;9.246;2023-05-07T02:30:49;11.60;99.90
55648;DHT22;45266;48.756;9.246;2023-05-07T02:31:51;11.60;99.90
55648;DHT22;45266;48.756;9.246;2023-05-07T02:32:54;11.60;99.90
55648;DHT22;45266;48.756;9.246;2023-05-07T02:33:56;11.60;99.90
55648;DHT22;45266;48.756;9.246;2023-05-07T02:34:58;11.60;99.90
55648;DHT22;45266;48.756;9.246;2023-05-07T02:36:07;11.60;99.90
55648;DHT22;45266;48.756;9.246;2023-05-07T02:37:09;11.60;99.90
55648;DHT22;45266;48.756;9.246;2023-05-07T02:38:11;11.60;99.90
55648;DHT22;45266;48.756;9.246;2023-05-07T02:39:13;11.50;99.90
55648;DHT22;45266;48.756;9.246;2023-05-07T02:40:15;11.50;99.90
55648;DHT22;45266;48.756;9.246;2023-05-07T02:41:17;11.50;99.90
55648;DHT22;45266;48.756;9.246;2023-05-07T02:42:19;11.50;99.90
55648;DHT22;45266;48.756;9.246;2023-05-07T02:43:20;11.50;99.90
55648;DHT22;45266;48.756;9.246;2023-05-07T02:44:22;11.50;99.90
55648;DHT22;45266;48.756;9.246;2023-05-07T02:45:24;11.50;99.90
55648;DHT22;45266;48.756;9.246;2023-05-07T02:46:26;11.50;99.90
55648;DHT22;45266;48.756;9.246;2023-05-07T02:47:28;11.50;99.90
55648;DHT22;45266;48.756;9.246;2023-05-07T02:48:30;11.50;99.90
55648;DHT22;45266;48.756;9.246;2023-05-07T02:49:32;11.40;99.90
55648;DHT22;45266;48.756;9.246;2023-05-07T02:50:33;11.40;99.90
55648;DHT22;45266;48.756;9.246;2023-05-07T02:51:35;11.40;99.90
55648;DHT22;45266;48.756;9.246;2023-05-07T02:52:37;11.40;99.90
55648;DHT22;45266;48.756;9.246;2023-05-07T02:53:38;11.40;99.90
55648;DHT22;45266;48.756;9.246;2023-05-07T02:54:41;11.30;99.90
55648;DHT22;45266;48.756;9.246;2023-05-07T02:55:42;11.30;99.90
55648;DHT22;45266;48.756;9.246;2023-05-07T02:56:45;11.30;99.90
55648;DHT22;45266;48.756;9.246;2023-05-07T02:57:47;11.20;99.90
55648;DHT22;45266;48.756;9.246;2023-05-07T02:58:48;11.30;99.90
55648;DHT22;45266;48.756;9.246;2023-05-07T02:59:50;11.20;99.90
55648;DHT22;45266;48.756;9.246;2023-05-07T03:00:53;11.20;99.90
55648;DHT22;45266;48.756;9.246;2023-05-07T03:01:56;11.20;99.90
55648;DHT22;45266;48.756;9.246;2023-05-07T03:02:57;11.10;99.90
55648;DHT22;45266;48.756;9.246;2023-05-07T03:03:59;11.10;99.90
55648;DHT22;45266;48.756;9.246;2023-05-07T03:05:01;11.00;99.90
55648;DHT22;45266;48.756;9.246;2023-05-07T03:06:03;11.10;99.90
55648;DHT22;45266;48.756;9.246;2023-05-07T03:07:05;11.10;99.90
55648;DHT22;45266;48.756;9.246;2023-05-07T03:08:07;11.10;99.90
55648;DHT22;45266;48.756;9.246;2023-05-07T03:09:09;11.10;99.90
55648;DHT22;45266;48.756;9.246;2023-05-07T03:10:11;11.00;99.90
55648;DHT22;45266;48.756;9.246;2023-05-07T03:11:13;11.10;99.90
55648;DHT22;45266;48.756;9.246;2023-05-07T03:12:15;11.00;99.90
55648;DHT22;45266;48.756;9.246;2023-05-07T03:13:18;11.00;99.90
55648;DHT22;45266;48.756;9.246;2023-05-07T03:14:20;11.00;99.90
55648;DHT22;45266;48.756;9.246;2023-05-07T03:15:22;11.00;99.90
55648;DHT22;45266;48.756;9.246;2023-05-07T03:16:24;11.00;99.90
55648;DHT22;45266;48.756;9.246;2023-05-07T03:17:26;11.00;99.90
55648;DHT22;45266;48.756;9.246;2023-05-07T03:18:28;11.00;99.90
55648;DHT22;45266;48.756;9.246;2023-05-07T03:19:29;10.90;99.90
55648;DHT22;45266;48.756;9.246;2023-05-07T03:20:32;10.90;99.90
55648;DHT22;45266;48.756;9.246;2023-05-07T03:21:34;10.90;99.90
55648;DHT22;45266;48.756;9.246;2023-05-07T03:22:35;10.90;99.90
55648;DHT22;45266;48.756;9.246;2023-05-07T03:23:37;10.90;99.90
55648;DHT22;45266;48.756;9.246;2023-05-07T03:24:39;10.90;99.90
55648;DHT22;45266;48.756;9.246;2023-05-07T03:25:41;10.90;99.90
55648;DHT22;45266;48.756;9.246;2023-05-07T03:26:43;10.90;99.90
55648;DHT22;45266;48.756;9.246;2023-05-07T03:27:45;10.90;99.90
55648;DHT22;45266;48.756;9.246;2023-05-07T03:28:46;10.80;99.90
55648;DHT22;45266;48.756;9.246;2023-05-07T03:29:48;10.80;99.90
55648;DHT22;45266;48.756;9.246;2023-05-07T03:30:50;10.80;99.90
55648;DHT22;45266;48.756;9.246;2023-05-07T03:31:52;10.80;99.90
55648;DHT22;45266;48.756;9.246;2023-05-07T03:32:54;10.80;99.90
55648;DHT22;45266;48.756;9.246;2023-05-07T03:33:57;10.70;99.90
55648;DHT22;45266;48.756;9.246;2023-05-07T03:34:59;10.70;99.90
55648;DHT22;45266;48.756;9.246;2023-05-07T03:36:01;10.70;99.90
55648;DHT22;45266;48.756;9.246;2023-05-07T03:37:03;10.70;99.90
55648;DHT22;45266;48.756;9.246;2023-05-07T03:38:04;10.70;99.90
55648;DHT22;45266;48.756;9.246;2023-05-07T03:39:06;10.70;99.90
55648;DHT22;45266;48.756;9.246;2023-05-07T03:40:08;10.70;99.90
55648;DHT22;45266;48.756;9.246;2023-05-07T03:41:12;10.70;99.90
55648;DHT22;45266;48.756;9.246;2023-05-07T03:42:14;10.70;99.90
55648;DHT22;45266;48.756;9.246;2023-05-07T03:43:16;10.70;99.90
55648;DHT22;45266;48.756;9.246;2023-05-07T03:44:18;10.70;99.90
55648;DHT22;45266;48.756;9.246;2023-05-07T03:45:20;10.60;99.90
55648;DHT22;45266;48.756;9.246;2023-05-07T03:46:22;10.60;99.90
55648;DHT22;45266;48.756;9.246;2023-05-07T03:47:23;10.70;99.90
55648;DHT22;45266;48.756;9.246;2023-05-07T03:48:25;10.60;99.90
55648;DHT22;45266;48.756;9.246;2023-05-07T03:49:27;10.60;99.90
55648;DHT22;45266;48.756;9.246;2023-05-07T03:50:29;10.70;99.90
55648;DHT22;45266;48.756;9.246;2023-05-07T03:51:31;10.70;99.90
55648;DHT22;45266;48.756;9.246;2023-05-07T03:52:32;10.60;99.90
55648;DHT22;45266;48.756;9.246;2023-05-07T03:53:34;10.70;99.90
55648;DHT22;45266;48.756;9.246;2023-05-07T03:54:36;10.70;99.90
55648;DHT22;45266;48.756;9.246;2023-05-07T03:55:38;10.70;99.90
55648;DHT22;45266;48.756;9.246;2023-05-07T03:56:40;10.70;99.90
55648;DHT22;45266;48.756;9.246;2023-05-07T03:57:42;10.70;99.90
55648;DHT22;45266;48.756;9.246;2023-05-07T03:58:43;10.60;99.90
55648;DHT22;45266;48.756;9.246;2023-05-07T03:59:45;10.70;99.90
55648;DHT22;45266;48.756;9.246;2023-05-07T04:00:47;10.70;99.90
55648;DHT22;45266;48.756;9.246;2023-05-07T04:01:50;10.70;99.90
55648;DHT22;45266;48.756;9.246;2023-05-07T04:02:52;10.70;99.90
55648;DHT22;45266;48.756;9.246;2023-05-07T04:03:54;10.60;99.90
55648;DHT22;45266;48.756;9.246;2023-05-07T04:04:56;10.60;99.90
55648;DHT22;45266;48.756;9.246;2023-05-07T04:05:58;10.60;99.90
55648;DHT22;45266;48.756;9.246;2023-05-07T04:07:00;10.60;99.90
55648;DHT22;45266;48.756;9.246;2023-05-07T04:08:02;10.60;99.90
55648;DHT22;45266;48.756;9.246;2023-05-07T04:09:04;10.50;99.90
55648;DHT22;45266;48.756;9.246;2023-05-07T04:10:06;10.50;99.90
55648;DHT22;45266;48.756;9.246;2023-05-07T04:11:08;10.50;99.90
55648;DHT22;45266;48.756;9.246;2023-05-07T04:12:10;10.50;99.90
55648;DHT22;45266;48.756;9.246;2023-05-07T04:13:11;10.50;99.90
55648;DHT22;45266;48.756;9.246;2023-05-07T04:14:13;10.50;99.90
55648;DHT22;45266;48.756;9.246;2023-05-07T04:15:15;10.50;99.90
55648;DHT22;45266;48.756;9.246;2023-05-07T04:16:17;10.50;99.90
55648;DHT22;45266;48.756;9.246;2023-05-07T04:17:18;10.50;99.90
55648;DHT22;45266;48.756;9.246;2023-05-07T04:18:20;10.50;99.90
55648;DHT22;45266;48.756;9.246;2023-05-07T04:19:22;10.50;99.90
55648;DHT22;45266;48.756;9.246;2023-05-07T04:20:24;10.50;99.90
55648;DHT22;45266;48.756;9.246;2023-05-07T04:21:26;10.50;99.90
55648;DHT22;45266;48.756;9.246;2023-05-07T04:22:28;10.60;99.90
55648;DHT22;45266;48.756;9.246;2023-05-07T04:23:30;10.50;99.90
55648;DHT22;45266;48.756;9.246;2023-05-07T04:24:32;10.60;99.90
55648;DHT22;45266;48.756;9.246;2023-05-07T04:25:37;10.60;99.90
55648;DHT22;45266;48.756;9.246;2023-05-07T04:26:38;10.60;99.90
55648;DHT22;45266;48.756;9.246;2023-05-07T04:27:40;10.60;99.90
55648;DHT22;45266;48.756;9.246;2023-05-07T04:28:43;10.60;99.90
55648;DHT22;45266;48.756;9.246;2023-05-07T04:29:44;10.60;99.90
55648;DHT22;45266;48.756;9.246;2023-05-07T04:30:48;10.60;99.90
55648;DHT22;45266;48.756;9.246;2023-05-07T04:31:50;10.60;99.90
55648;DHT22;45266;48.756;9.246;2023-05-07T04:32:52;10.60;99.90
55648;DHT22;45266;48.756;9.246;2023-05-07T04:33:54;10.60;99.90
55648;DHT22;45266;48.756;9.246;2023-05-07T04:34:56;10.60;99.90
55648;DHT22;45266;48.756;9.246;2023-05-07T04:36:00;10.60;99.90
55648;DHT22;45266;48.756;9.246;2023-05-07T04:37:04;10.60;99.90
55648;DHT22;45266;48.756;9.246;2023-05-07T04:38:06;10.70;99.90
55648;DHT22;45266;48.756;9.246;2023-05-07T04:39:08;10.70;99.90
55648;DHT22;45266;48.756;9.246;2023-05-07T04:40:10;10.70;99.90
55648;DHT22;45266;48.756;9.246;2023-05-07T04:41:12;10.70;99.90
55648;DHT22;45266;48.756;9.246;2023-05-07T04:42:15;10.70;99.90
55648;DHT22;45266;48.756;9.246;2023-05-07T04:43:17;10.80;99.90
55648;DHT22;45266;48.756;9.246;2023-05-07T04:44:19;10.80;99.90
55648;DHT22;45266;48.756;9.246;2023-05-07T04:45:21;10.80;99.90
55648;DHT22;45266;48.756;9.246;2023-05-07T04:46:22;10.80;99.90
55648;DHT22;45266;48.756;9.246;2023-05-07T04:47:25;10.80;99.90
55648;DHT22;45266;48.756;9.246;2023-05-07T04:48:27;10.80;99.90
55648;DHT22;45266;48.756;9.246;2023-05-07T04:49:30;10.80;99.90
55648;DHT22;45266;48.756;9.246;2023-05-07T04:50:32;10.80;99.90
55648;DHT22;45266;48.756;9.246;2023-05-07T04:51:33;10.80;99.90
55648;DHT22;45266;48.756;9.246;2023-05-07T04:52:35;10.80;99.90
55648;DHT22;45266;48.756;9.246;2023-05-07T04:53:37;10.80;99.90
55648;DHT22;45266;48.756;9.246;2023-05-07T04:54:39;10.80;99.90
55648;DHT22;45266;48.756;9.246;2023-05-07T04:55:41;10.80;99.90
55648;DHT22;45266;48.756;9.246;2023-05-07T04:56:43;10.80;99.90
55648;DHT22;45266;48.756;9.246;2023-05-07T04:57:45;10.80;99.90
55648;DHT22;45266;48.756;9.246;2023-05-07T04:58:46;10.80;99.90
55648;DHT22;45266;48.756;9.246;2023-05-07T04:59:48;10.80;99.90
55648;DHT22;45266;48.756;9.246;2023-05-07T05:00:50;10.80;99.90
55648;DHT22;45266;48.756;9.246;2023-05-07T05:01:52;10.90;99.90
55648;DHT22;45266;48.756;9.246;2023-05-07T05:02:53;10.90;99.90
55648;DHT22;45266;48.756;9.246;2023-05-07T05:03:55;10.90;99.90
55648;DHT22;45266;48.756;9.246;2023-05-07T05:04:57;10.90;99.90
55648;DHT22;45266;48.756;9.246;2023-05-07T05:06:00;10.90;99.90
55648;DHT22;45266;48.756;9.246;2023-05-07T05:07:03;10.90;99.90
55648;DHT22;45266;48.756;9.246;2023-05-07T05:08:05;10.90;99.90
55648;DHT22;45266;48.756;9.246;2023-05-07T05:09:07;10.90;99.90
55648;DHT22;45266;48.756;9.246;2023-05-07T05:10:09;10.80;99.90
55648;DHT22;45266;48.756;9.246;2023-05-07T05:11:11;10.90;99.90
55648;DHT22;45266;48.756;9.246;2023-05-07T05:12:13;10.90;99.90
55648;DHT22;45266;48.756;9.246;2023-05-07T05:13:14;10.90;99.90
55648;DHT22;45266;48.756;9.246;2023-05-07T05:14:16;10.90;99.90
55648;DHT22;45266;48.756;9.246;2023-05-07T05:15:18;10.90;99.90
55648;DHT22;45266;48.756;9.246;2023-05-07T05:16:20;10.90;99.90
55648;DHT22;45266;48.756;9.246;2023-05-07T05:17:22;10.90;99.90
55648;DHT22;45266;48.756;9.246;2023-05-07T05:18:23;11.00;99.90
55648;DHT22;45266;48.756;9.246;2023-05-07T05:19:25;10.90;99.90
55648;DHT22;45266;48.756;9.246;2023-05-07T05:20:27;10.90;99.90
55648;DHT22;45266;48.756;9.246;2023-05-07T05:21:29;11.00;99.90
55648;DHT22;45266;48.756;9.246;2023-05-07T05:22:30;11.00;99.90
55648;DHT22;45266;48.756;9.246;2023-05-07T05:23:33;10.90;99.90
55648;DHT22;45266;48.756;9.246;2023-05-07T05:24:34;11.00;99.90
55648;DHT22;45266;48.756;9.246;2023-05-07T05:25:36;11.00;99.90
55648;DHT22;45266;48.756;9.246;2023-05-07T05:26:38;11.10;99.90
55648;DHT22;45266;48.756;9.246;2023-05-07T05:27:40;11.10;99.90
55648;DHT22;45266;48.756;9.246;2023-05-07T05:28:42;11.10;99.90
55648;DHT22;45266;48.756;9.246;2023-05-07T05:29:43;11.20;99.90
55648;DHT22;45266;48.756;9.246;2023-05-07T05:30:45;11.30;99.90
55648;DHT22;45266;48.756;9.246;2023-05-07T05:31:47;11.30;99.90
55648;DHT22;45266;48.756;9.246;2023-05-07T05:32:50;11.40;99.90
55648;DHT22;45266;48.756;9.246;2023-05-07T05:33:52;11.40;99.90
55648;DHT22;45266;48.756;9.246;2023-05-07T05:34:54;11.50;99.90
55648;DHT22;45266;48.756;9.246;2023-05-07T05:35:55;11.50;99.90
55648;DHT22;45266;48.756;9.246;2023-05-07T05:36:58;11.60;99.90
55648;DHT22;45266;48.756;9.246;2023-05-07T05:38:00;11.60;99.90
55648;DHT22;45266;48.756;9.246;2023-05-07T05:39:02;11.70;99.90
55648;DHT22;45266;48.756;9.246;2023-05-07T05:40:05;11.70;99.90
55648;DHT22;45266;48.756;9.246;2023-05-07T05:41:07;11.80;99.90
55648;DHT22;45266;48.756;9.246;2023-05-07T05:42:09;11.80;99.90
55648;DHT22;45266;48.756;9.246;2023-05-07T05:43:11;11.90;99.90
55648;DHT22;45266;48.756;9.246;2023-05-07T05:44:12;11.90;99.90
55648;DHT22;45266;48.756;9.246;2023-05-07T05:45:14;12.00;99.90
55648;DHT22;45266;48.756;9.246;2023-05-07T05:46:16;12.10;99.90
55648;DHT22;45266;48.756;9.246;2023-05-07T05:47:18;12.10;99.90
55648;DHT22;45266;48.756;9.246;2023-05-07T05:48:19;12.20;99.90
55648;DHT22;45266;48.756;9.246;2023-05-07T05:49:21;12.30;99.90
55648;DHT22;45266;48.756;9.246;2023-05-07T05:50:23;12.30;99.90
55648;DHT22;45266;48.756;9.246;2023-05-07T05:51:25;12.40;99.90
55648;DHT22;45266;48.756;9.246;2023-05-07T05:52:28;12.40;99.90
55648;DHT22;45266;48.756;9.246;2023-05-07T05:53:29;12.50;99.90
55648;DHT22;45266;48.756;9.246;2023-05-07T05:54:31;12.50;99.90
55648;DHT22;45266;48.756;9.246;2023-05-07T05:55:33;12.50;99.90
55648;DHT22;45266;48.756;9.246;2023-05-07T05:56:37;12.50;99.90
55648;DHT22;45266;48.756;9.246;2023-05-07T05:57:39;12.60;99.90
55648;DHT22;45266;48.756;9.246;2023-05-07T05:58:41;12.60;99.90
55648;DHT22;45266;48.756;9.246;2023-05-07T05:59:43;12.60;99.90
55648;DHT22;45266;48.756;9.246;2023-05-07T06:00:46;12.70;99.90
55648;DHT22;45266;48.756;9.246;2023-05-07T06:01:49;12.80;99.90
55648;DHT22;45266;48.756;9.246;2023-05-07T06:02:51;12.80;99.90
55648;DHT22;45266;48.756;9.246;2023-05-07T06:03:53;12.90;99.90
55648;DHT22;45266;48.756;9.246;2023-05-07T06:04:55;13.00;99.90
55648;DHT22;45266;48.756;9.246;2023-05-07T06:05:57;13.10;99.90
55648;DHT22;45266;48.756;9.246;2023-05-07T06:06:58;13.10;99.90
55648;DHT22;45266;48.756;9.246;2023-05-07T06:08:00;13.20;99.90
55648;DHT22;45266;48.756;9.246;2023-05-07T06:09:02;13.30;99.90
55648;DHT22;45266;48.756;9.246;2023-05-07T06:10:04;13.30;99.90
55648;DHT22;45266;48.756;9.246;2023-05-07T06:11:06;13.40;99.90
55648;DHT22;45266;48.756;9.246;2023-05-07T06:12:09;13.50;99.90
55648;DHT22;45266;48.756;9.246;2023-05-07T06:13:10;13.50;99.90
55648;DHT22;45266;48.756;9.246;2023-05-07T06:14:12;13.60;99.90
55648;DHT22;45266;48.756;9.246;2023-05-07T06:15:14;13.70;99.90
55648;DHT22;45266;48.756;9.246;2023-05-07T06:16:16;13.70;99.90
55648;DHT22;45266;48.756;9.246;2023-05-07T06:17:18;13.80;99.90
55648;DHT22;45266;48.756;9.246;2023-05-07T06:18:22;13.90;99.90
55648;DHT22;45266;48.756;9.246;2023-05-07T06:19:24;14.00;99.90
55648;DHT22;45266;48.756;9.246;2023-05-07T06:20:28;14.00;99.90
55648;DHT22;45266;48.756;9.246;2023-05-07T06:21:29;14.10;99.90
55648;DHT22;45266;48.756;9.246;2023-05-07T06:22:32;14.20;99.90
55648;DHT22;45266;48.756;9.246;2023-05-07T06:23:34;14.20;99.90
55648;DHT22;45266;48.756;9.246;2023-05-07T06:24:36;14.30;99.90
55648;DHT22;45266;48.756;9.246;2023-05-07T06:25:38;14.40;99.90
55648;DHT22;45266;48.756;9.246;2023-05-07T06:26:39;14.40;99.90
55648;DHT22;45266;48.756;9.246;2023-05-07T06:27:41;14.50;99.90
55648;DHT22;45266;48.756;9.246;2023-05-07T06:28:43;14.50;99.90
55648;DHT22;45266;48.756;9.246;2023-05-07T06:29:45;14.60;99.90
55648;DHT22;45266;48.756;9.246;2023-05-07T06:30:47;14.60;99.90
55648;DHT22;45266;48.756;9.246;2023-05-07T06:31:50;14.70;99.90
55648;DHT22;45266;48.756;9.246;2023-05-07T06:32:52;14.80;99.90